To NAV CANADA Home Page Login to a new session Search on AWWS site Disclaimer Vers la page française équivalente Tips FAQ What's new on the site To the Forecasts and Observations / NOTAM section To "File a Flight Plan" website Publications and other links Update of the User's profile FIC Telephone Numbers My Weather Data Folder Route Weather Data Regional Weather Data Local Weather Data To the Forecasts and Observations / NOTAM section
Request Generated 04/24/2019 at 16:31:05 UTC . Weather information available at that time is displayed.

METAR/TAF

THUNDER BAY/ON    (show WxCam)

METAR CYQT 241600Z 08010KT 20SM -SHRA OVC065 04/01 A2981 RMK SC8 SLP104=
METAR CYQT 241500Z 08009KT 20SM -SHRA OVC065 04/00 A2982 RMK SC8 SLP108=
METAR CYQT 241400Z CCA 07008KT 20SM -SHRA OVC075 04/M00 A2985 RMK AC8 SLP116=
METAR CYQT 241400Z 07008KT 20SM OVC075 04/M00 A2985 RMK AC8 SLP116=

TAF CYQT 241338Z 2414/2502 08007KT P6SM -RA OVC070 TEMPO 2414/2420
4SM -SHRA BR BKN010 OVC070
BECMG 2418/2420 17012G22KT
FM242000 17012G22KT P6SM BKN090
FM242300 21010KT P6SM SCT080 TEMPO 2423/2502 P6SM -SHRA BKN080
RMK NXT FCST BY 242000Z=
Your time UTC time
Weather data provided by Environment Canada and NAV CANADA